עמוד ראשי
METAR-TAF:

METAR-TAF

שדות תעופה :

Deline, הטריטוריות הצפון-מערביות, קנדה

קו רוחב: 65-12N, קו אורך: 123-26W, גובה: 176מטר

תצפית מזג אוויר נוכחית

הדו"ח נערך לפני 35דקות, בשעה 16:00 UTC
רוח 5קשר מכיוון מערב, משתנה בין מערב ו צפון/צפון-מערב
טמפרטורת 15 צלסיוס
לחות 39%
לחץ 1012 hPa
ראות: 64.4קילומטר
מעט עננים בגובה 14000רגל
מעט עננים בגובה 20000רגל

METAR: CYWJ 171600Z 28005KT 270V340 40SM FEW140 FEW200 15/01 A2987 RMK AC1CC2 AC TR SLP128

זמן: 10:35 (16:35 UTC)

תחזית

הדו"ח נערך לפני 2 שעות ו 25דקות, בשעה 14:10 UTC
תחזית בתוקף מ 17 ב 14 UTC עד 17 ב 23 UTC
רוח 3קשר עם כיוונים משתנים
ראות: 10קילומטר
מעט עננים בגובה 14000רגל
מעט עננים בגובה 20000רגל
יעשה מ
17 ב 16 UTC עד 17 ב 18 UTC
רוח 8קשר מכיוון צפון/צפון-מערב

TAF: CYWJ 171410Z 1714/1723 VRB03KT P6SM FEW140 FEW200 BECMG 1716/1718 34008KT RMK NXT FCST BY 171800Z

תצפיות ותחזיות מזג אוויר לגבי יותר מ- 4,000 שדות תעופה ברחבי העולם. דוחות METAR ו- TAF.

התחנות הזמינות מסומנות בנקודות צהובות ואדומות על גבי המפה.

העבר את העכבר לנקודה הצבעונית על מנת לראות את שם התחנה.

לאחר מכן, לחץ כדי לראות את תוכן ואת תחזיות מזג האוויר.

כדי לשנות את המפה: לחץ על הכפתורים הירוקים עם הפלוס השחור כדי להתקרב; על הכפתור הירוק עם המקף כדי להתרחק; או בחיצים הירוקים למפות סמוכות.


METAR-TAF: